sensor_id;sensor_type;location;lat;lon;timestamp;pressure;altitude;pressure_sealevel;temperature;humidity
71465;BME280;59274;49.874;9.154;2023-05-20T00:01:31;100600.72;;;14.26;72.24
71465;BME280;59274;49.874;9.154;2023-05-20T00:03:57;100596.03;;;14.26;72.53
71465;BME280;59274;49.874;9.154;2023-05-20T00:06:25;100601.06;;;14.17;73.66
71465;BME280;59274;49.874;9.154;2023-05-20T00:08:50;100603.78;;;14.10;73.21
71465;BME280;59274;49.874;9.154;2023-05-20T00:11:16;100608.50;;;14.13;73.34
71465;BME280;59274;49.874;9.154;2023-05-20T00:13:41;100604.22;;;14.19;73.68
71465;BME280;59274;49.874;9.154;2023-05-20T00:16:07;100603.00;;;14.06;72.54
71465;BME280;59274;49.874;9.154;2023-05-20T00:18:32;100602.19;;;13.95;73.37
71465;BME280;59274;49.874;9.154;2023-05-20T00:20:57;100599.44;;;13.95;73.49
71465;BME280;59274;49.874;9.154;2023-05-20T00:23:23;100604.88;;;13.88;73.89
71465;BME280;59274;49.874;9.154;2023-05-20T00:25:49;100607.19;;;13.75;74.21
71465;BME280;59274;49.874;9.154;2023-05-20T00:28:14;100604.47;;;13.79;74.93
71465;BME280;59274;49.874;9.154;2023-05-20T00:30:40;100596.63;;;13.63;74.67
71465;BME280;59274;49.874;9.154;2023-05-20T00:33:06;100598.19;;;13.67;74.82
71465;BME280;59274;49.874;9.154;2023-05-20T00:35:32;100598.13;;;13.53;75.25
71465;BME280;59274;49.874;9.154;2023-05-20T00:37:57;100593.06;;;13.48;75.96
71465;BME280;59274;49.874;9.154;2023-05-20T00:40:23;100591.13;;;13.56;76.69
71465;BME280;59274;49.874;9.154;2023-05-20T00:42:49;100589.16;;;13.49;76.01
71465;BME280;59274;49.874;9.154;2023-05-20T00:45:15;100584.88;;;13.48;76.16
71465;BME280;59274;49.874;9.154;2023-05-20T00:47:41;100587.56;;;13.41;76.77
71465;BME280;59274;49.874;9.154;2023-05-20T00:50:08;100587.63;;;13.59;76.96
71465;BME280;59274;49.874;9.154;2023-05-20T00:52:35;100589.56;;;13.58;76.97
71465;BME280;59274;49.874;9.154;2023-05-20T00:55:01;100585.25;;;13.47;77.29
71465;BME280;59274;49.874;9.154;2023-05-20T00:57:28;100584.44;;;13.43;78.05
71465;BME280;59274;49.874;9.154;2023-05-20T00:59:54;100582.53;;;13.54;78.24
71465;BME280;59274;49.874;9.154;2023-05-20T01:02:20;100591.09;;;13.52;79.36
71465;BME280;59274;49.874;9.154;2023-05-20T01:04:45;100586.00;;;13.44;80.66
71465;BME280;59274;49.874;9.154;2023-05-20T01:07:14;100583.22;;;13.33;81.14
71465;BME280;59274;49.874;9.154;2023-05-20T01:09:40;100582.84;;;13.38;82.21
71465;BME280;59274;49.874;9.154;2023-05-20T01:12:43;100593.41;;;13.43;84.83
71465;BME280;59274;49.874;9.154;2023-05-20T01:15:07;100581.69;;;13.39;83.61
71465;BME280;59274;49.874;9.154;2023-05-20T01:17:37;100587.91;;;13.36;80.94
71465;BME280;59274;49.874;9.154;2023-05-20T01:20:04;100581.66;;;13.32;81.44
71465;BME280;59274;49.874;9.154;2023-05-20T01:22:32;100573.88;;;13.34;81.44
71465;BME280;59274;49.874;9.154;2023-05-20T01:24:57;100582.47;;;13.43;81.28
71465;BME280;59274;49.874;9.154;2023-05-20T01:27:23;100575.06;;;13.44;81.44
71465;BME280;59274;49.874;9.154;2023-05-20T01:29:49;100577.06;;;13.47;80.98
71465;BME280;59274;49.874;9.154;2023-05-20T01:32:40;100579.06;;;13.57;82.76
71465;BME280;59274;49.874;9.154;2023-05-20T01:35:07;100572.41;;;13.54;83.73
71465;BME280;59274;49.874;9.154;2023-05-20T01:37:37;100570.88;;;13.57;82.00
71465;BME280;59274;49.874;9.154;2023-05-20T01:40:06;100575.94;;;13.65;79.62
71465;BME280;59274;49.874;9.154;2023-05-20T01:42:32;100569.69;;;13.58;79.49
71465;BME280;59274;49.874;9.154;2023-05-20T01:44:59;100576.72;;;13.62;79.17
71465;BME280;59274;49.874;9.154;2023-05-20T01:47:25;100567.72;;;13.51;79.77
71465;BME280;59274;49.874;9.154;2023-05-20T01:49:50;100572.03;;;13.56;80.72
71465;BME280;59274;49.874;9.154;2023-05-20T01:52:19;100566.13;;;13.50;80.24
71465;BME280;59274;49.874;9.154;2023-05-20T01:54:45;100566.59;;;13.66;80.63
71465;BME280;59274;49.874;9.154;2023-05-20T01:57:18;100567.34;;;13.56;80.37
71465;BME280;59274;49.874;9.154;2023-05-20T01:59:44;100564.94;;;13.44;80.76
71465;BME280;59274;49.874;9.154;2023-05-20T02:02:09;100570.47;;;13.55;82.02
71465;BME280;59274;49.874;9.154;2023-05-20T02:04:35;100557.56;;;13.48;82.05
71465;BME280;59274;49.874;9.154;2023-05-20T02:07:00;100561.41;;;13.37;82.66
71465;BME280;59274;49.874;9.154;2023-05-20T02:09:26;100559.47;;;13.37;82.97
71465;BME280;59274;49.874;9.154;2023-05-20T02:11:51;100558.25;;;13.27;85.68
71465;BME280;59274;49.874;9.154;2023-05-20T02:14:16;100550.88;;;13.28;84.51
71465;BME280;59274;49.874;9.154;2023-05-20T02:16:42;100553.16;;;13.19;84.59
71465;BME280;59274;49.874;9.154;2023-05-20T02:19:07;100548.09;;;13.21;84.73
71465;BME280;59274;49.874;9.154;2023-05-20T02:21:40;100552.81;;;13.27;84.42
71465;BME280;59274;49.874;9.154;2023-05-20T02:24:06;100553.19;;;13.26;84.13
71465;BME280;59274;49.874;9.154;2023-05-20T02:26:33;100547.72;;;13.29;83.86
71465;BME280;59274;49.874;9.154;2023-05-20T02:28:58;100545.03;;;13.33;83.79
71465;BME280;59274;49.874;9.154;2023-05-20T02:31:24;100553.56;;;13.24;84.07
71465;BME280;59274;49.874;9.154;2023-05-20T02:33:50;100550.50;;;13.37;83.56
71465;BME280;59274;49.874;9.154;2023-05-20T02:36:15;100554.41;;;13.36;83.78
71465;BME280;59274;49.874;9.154;2023-05-20T02:38:41;100545.38;;;13.24;84.78
71465;BME280;59274;49.874;9.154;2023-05-20T02:41:07;100545.34;;;13.14;84.83
71465;BME280;59274;49.874;9.154;2023-05-20T02:43:33;100548.78;;;13.11;84.77
71465;BME280;59274;49.874;9.154;2023-05-20T02:46:01;100544.47;;;13.06;85.05
71465;BME280;59274;49.874;9.154;2023-05-20T02:48:26;100546.16;;;13.21;84.79
71465;BME280;59274;49.874;9.154;2023-05-20T02:50:52;100534.44;;;13.17;84.97
71465;BME280;59274;49.874;9.154;2023-05-20T02:53:17;100526.97;;;13.11;85.26
71465;BME280;59274;49.874;9.154;2023-05-20T02:55:44;100530.56;;;13.25;84.51
71465;BME280;59274;49.874;9.154;2023-05-20T02:58:11;100534.06;;;13.22;84.71
71465;BME280;59274;49.874;9.154;2023-05-20T03:00:38;100530.91;;;13.17;85.34
71465;BME280;59274;49.874;9.154;2023-05-20T03:03:08;100530.38;;;12.93;86.71
71465;BME280;59274;49.874;9.154;2023-05-20T03:05:37;100535.81;;;12.93;86.76
71465;BME280;59274;49.874;9.154;2023-05-20T03:08:08;100535.84;;;13.01;86.53
71465;BME280;59274;49.874;9.154;2023-05-20T03:10:38;100528.84;;;12.96;86.25
71465;BME280;59274;49.874;9.154;2023-05-20T03:13:05;100524.56;;;12.99;86.73
71465;BME280;59274;49.874;9.154;2023-05-20T03:15:38;100531.19;;;12.98;86.70
71465;BME280;59274;49.874;9.154;2023-05-20T03:18:04;100520.66;;;12.92;86.86
71465;BME280;59274;49.874;9.154;2023-05-20T03:20:30;100524.19;;;13.00;86.81
71465;BME280;59274;49.874;9.154;2023-05-20T03:23:01;100525.72;;;12.98;86.52
71465;BME280;59274;49.874;9.154;2023-05-20T03:25:27;100531.19;;;13.01;86.74
71465;BME280;59274;49.874;9.154;2023-05-20T03:27:52;100535.06;;;12.97;86.80
71465;BME280;59274;49.874;9.154;2023-05-20T03:30:18;100537.09;;;13.07;87.19
71465;BME280;59274;49.874;9.154;2023-05-20T03:32:44;100533.16;;;13.08;86.41
71465;BME280;59274;49.874;9.154;2023-05-20T03:35:09;100536.31;;;13.06;86.30
71465;BME280;59274;49.874;9.154;2023-05-20T03:37:35;100532.34;;;12.97;86.81
71465;BME280;59274;49.874;9.154;2023-05-20T03:40:01;100537.84;;;13.04;86.71
71465;BME280;59274;49.874;9.154;2023-05-20T03:42:30;100539.88;;;13.14;87.29
71465;BME280;59274;49.874;9.154;2023-05-20T03:44:56;100538.69;;;13.15;86.64
71465;BME280;59274;49.874;9.154;2023-05-20T03:47:21;100535.22;;;13.18;85.88
71465;BME280;59274;49.874;9.154;2023-05-20T03:49:47;100527.06;;;13.25;86.04
71465;BME280;59274;49.874;9.154;2023-05-20T03:52:12;100531.75;;;13.24;85.66
71465;BME280;59274;49.874;9.154;2023-05-20T03:54:37;100524.69;;;13.16;86.24
71465;BME280;59274;49.874;9.154;2023-05-20T03:57:03;100527.88;;;13.36;87.54
71465;BME280;59274;49.874;9.154;2023-05-20T03:59:28;100534.53;;;13.35;85.77
71465;BME280;59274;49.874;9.154;2023-05-20T04:01:54;100531.78;;;13.31;86.29
71465;BME280;59274;49.874;9.154;2023-05-20T04:04:21;100533.34;;;13.36;86.10
71465;BME280;59274;49.874;9.154;2023-05-20T04:06:46;100532.94;;;13.27;86.56
71465;BME280;59274;49.874;9.154;2023-05-20T04:09:12;100539.53;;;13.26;86.68
71465;BME280;59274;49.874;9.154;2023-05-20T04:11:37;100540.25;;;13.16;87.16
71465;BME280;59274;49.874;9.154;2023-05-20T04:14:03;100540.34;;;13.30;86.88
71465;BME280;59274;49.874;9.154;2023-05-20T04:16:28;100536.81;;;13.29;86.85
71465;BME280;59274;49.874;9.154;2023-05-20T04:18:54;100535.25;;;13.21;87.27
71465;BME280;59274;49.874;9.154;2023-05-20T04:21:20;100536.03;;;13.29;85.96
71465;BME280;59274;49.874;9.154;2023-05-20T04:23:46;100531.22;;;13.08;86.04
71465;BME280;59274;49.874;9.154;2023-05-20T04:26:11;100534.84;;;13.19;86.42
71465;BME280;59274;49.874;9.154;2023-05-20T04:28:37;100538.38;;;13.30;85.59
71465;BME280;59274;49.874;9.154;2023-05-20T04:31:03;100541.19;;;13.45;85.59
71465;BME280;59274;49.874;9.154;2023-05-20T04:33:31;100544.31;;;13.50;84.56
71465;BME280;59274;49.874;9.154;2023-05-20T04:35:57;100542.75;;;13.46;85.16
71465;BME280;59274;49.874;9.154;2023-05-20T04:38:24;100538.13;;;13.60;84.94
71465;BME280;59274;49.874;9.154;2023-05-20T04:40:57;100530.72;;;13.61;84.93
71465;BME280;59274;49.874;9.154;2023-05-20T04:43:27;100531.50;;;13.65;85.02
71465;BME280;59274;49.874;9.154;2023-05-20T04:45:58;100525.63;;;13.59;85.23
71465;BME280;59274;49.874;9.154;2023-05-20T04:48:26;100532.72;;;13.71;84.59
71465;BME280;59274;49.874;9.154;2023-05-20T04:50:51;100520.59;;;13.65;84.80
71465;BME280;59274;49.874;9.154;2023-05-20T04:53:18;100528.78;;;13.65;84.70
71465;BME280;59274;49.874;9.154;2023-05-20T04:55:44;100524.84;;;13.59;85.69
71465;BME280;59274;49.874;9.154;2023-05-20T04:58:10;100522.16;;;13.62;85.69
71465;BME280;59274;49.874;9.154;2023-05-20T05:00:45;100513.97;;;13.73;86.21
71465;BME280;59274;49.874;9.154;2023-05-20T05:03:11;100520.59;;;13.68;86.00
71465;BME280;59274;49.874;9.154;2023-05-20T05:05:37;100518.63;;;13.58;87.42
71465;BME280;59274;49.874;9.154;2023-05-20T05:08:04;100524.84;;;13.55;88.28
71465;BME280;59274;49.874;9.154;2023-05-20T05:10:30;100517.06;;;13.64;87.64
71465;BME280;59274;49.874;9.154;2023-05-20T05:12:55;100524.53;;;13.71;89.06
71465;BME280;59274;49.874;9.154;2023-05-20T05:15:21;100519.41;;;13.62;87.54
71465;BME280;59274;49.874;9.154;2023-05-20T05:17:46;100514.75;;;13.66;87.06
71465;BME280;59274;49.874;9.154;2023-05-20T05:20:12;100521.81;;;13.85;89.32
71465;BME280;59274;49.874;9.154;2023-05-20T05:22:37;100515.19;;;13.90;87.00
71465;BME280;59274;49.874;9.154;2023-05-20T05:25:05;100515.94;;;13.76;87.76
71465;BME280;59274;49.874;9.154;2023-05-20T05:27:31;100512.41;;;13.72;87.79
71465;BME280;59274;49.874;9.154;2023-05-20T05:29:56;100511.66;;;13.79;87.79
71465;BME280;59274;49.874;9.154;2023-05-20T05:32:22;100503.09;;;13.91;88.57
71465;BME280;59274;49.874;9.154;2023-05-20T05:34:47;100515.19;;;13.93;86.42
71465;BME280;59274;49.874;9.154;2023-05-20T05:37:13;100514.00;;;13.94;87.30
71465;BME280;59274;49.874;9.154;2023-05-20T05:39:38;100507.38;;;13.85;87.85
71465;BME280;59274;49.874;9.154;2023-05-20T05:42:04;100513.63;;;13.89;89.53
71465;BME280;59274;49.874;9.154;2023-05-20T05:44:29;100506.22;;;14.07;87.88
71465;BME280;59274;49.874;9.154;2023-05-20T05:46:55;100500.78;;;14.03;85.96
71465;BME280;59274;49.874;9.154;2023-05-20T05:49:20;100506.66;;;14.20;86.93
71465;BME280;59274;49.874;9.154;2023-05-20T05:51:46;100503.50;;;14.18;84.50
71465;BME280;59274;49.874;9.154;2023-05-20T05:54:11;100507.06;;;14.46;84.15
71465;BME280;59274;49.874;9.154;2023-05-20T05:56:36;100503.94;;;14.48;85.00
71465;BME280;59274;49.874;9.154;2023-05-20T05:59:03;100506.25;;;14.60;83.66
71465;BME280;59274;49.874;9.154;2023-05-20T06:01:28;100511.34;;;14.62;83.20
71465;BME280;59274;49.874;9.154;2023-05-20T06:03:57;100504.69;;;14.70;82.60
71465;BME280;59274;49.874;9.154;2023-05-20T06:06:22;100497.59;;;14.86;81.39
71465;BME280;59274;49.874;9.154;2023-05-20T06:08:48;100501.53;;;14.89;80.22
71465;BME280;59274;49.874;9.154;2023-05-20T06:11:13;100495.22;;;15.03;79.49
71465;BME280;59274;49.874;9.154;2023-05-20T06:13:39;100483.06;;;15.14;79.48
71465;BME280;59274;49.874;9.154;2023-05-20T06:16:04;100484.22;;;15.20;80.36
71465;BME280;59274;49.874;9.154;2023-05-20T06:18:29;100495.91;;;15.32;82.07
71465;BME280;59274;49.874;9.154;2023-05-20T06:20:58;100483.75;;;15.40;79.25
71465;BME280;59274;49.874;9.154;2023-05-20T06:23:24;100487.63;;;15.53;78.08
71465;BME280;59274;49.874;9.154;2023-05-20T06:25:50;100477.03;;;15.51;76.63
71465;BME280;59274;49.874;9.154;2023-05-20T06:28:16;100489.94;;;15.58;77.67
71465;BME280;59274;49.874;9.154;2023-05-20T06:30:41;100487.97;;;15.62;78.07
71465;BME280;59274;49.874;9.154;2023-05-20T06:33:07;100487.59;;;15.49;77.56
71465;BME280;59274;49.874;9.154;2023-05-20T06:35:33;100488.75;;;15.59;78.15
71465;BME280;59274;49.874;9.154;2023-05-20T06:38:01;100485.63;;;15.57;78.47
71465;BME280;59274;49.874;9.154;2023-05-20T06:40:27;100486.38;;;15.64;77.74
71465;BME280;59274;49.874;9.154;2023-05-20T06:42:52;100480.53;;;15.59;77.43
71465;BME280;59274;49.874;9.154;2023-05-20T06:45:18;100476.63;;;15.60;78.48
71465;BME280;59274;49.874;9.154;2023-05-20T06:47:43;100474.59;;;15.71;78.15
71465;BME280;59274;49.874;9.154;2023-05-20T06:50:10;100474.97;;;15.77;77.74
71465;BME280;59274;49.874;9.154;2023-05-20T06:52:35;100472.25;;;15.73;77.66
71465;BME280;59274;49.874;9.154;2023-05-20T06:55:02;100468.31;;;15.74;77.47
71465;BME280;59274;49.874;9.154;2023-05-20T06:57:27;100471.72;;;15.92;77.22
71465;BME280;59274;49.874;9.154;2023-05-20T06:59:53;100466.56;;;16.05;78.64
71465;BME280;59274;49.874;9.154;2023-05-20T07:02:20;100482.00;;;16.29;75.65
71465;BME280;59274;49.874;9.154;2023-05-20T07:04:45;100486.56;;;16.43;74.54
71465;BME280;59274;49.874;9.154;2023-05-20T07:07:11;100478.16;;;16.64;74.09
71465;BME280;59274;49.874;9.154;2023-05-20T07:09:36;100480.84;;;16.71;72.54
71465;BME280;59274;49.874;9.154;2023-05-20T07:12:02;100481.00;;;16.91;73.27
71465;BME280;59274;49.874;9.154;2023-05-20T07:14:27;100479.75;;;16.99;71.93
71465;BME280;59274;49.874;9.154;2023-05-20T07:16:53;100480.81;;;17.09;72.36
71465;BME280;59274;49.874;9.154;2023-05-20T07:19:18;100472.63;;;17.05;70.67
71465;BME280;59274;49.874;9.154;2023-05-20T07:21:43;100469.09;;;17.39;71.42
71465;BME280;59274;49.874;9.154;2023-05-20T07:24:09;100471.16;;;17.58;70.97
71465;BME280;59274;49.874;9.154;2023-05-20T07:26:34;100457.03;;;17.59;68.49
71465;BME280;59274;49.874;9.154;2023-05-20T07:29:02;100468.22;;;17.45;69.29
71465;BME280;59274;49.874;9.154;2023-05-20T07:31:27;100452.56;;;17.69;68.75
71465;BME280;59274;49.874;9.154;2023-05-20T07:33:53;100474.69;;;17.89;68.69
71465;BME280;59274;49.874;9.154;2023-05-20T07:36:18;100469.06;;;17.96;67.27
71465;BME280;59274;49.874;9.154;2023-05-20T07:38:44;100459.16;;;18.25;66.77
71465;BME280;59274;49.874;9.154;2023-05-20T07:41:10;100463.00;;;18.31;67.07
71465;BME280;59274;49.874;9.154;2023-05-20T07:43:35;100454.66;;;18.35;66.13
71465;BME280;59274;49.874;9.154;2023-05-20T07:46:01;100458.84;;;18.43;66.56
71465;BME280;59274;49.874;9.154;2023-05-20T07:48:27;100460.19;;;18.55;65.38
71465;BME280;59274;49.874;9.154;2023-05-20T07:50:52;100446.72;;;18.64;64.97
71465;BME280;59274;49.874;9.154;2023-05-20T07:53:17;100442.41;;;18.63;64.91
71465;BME280;59274;49.874;9.154;2023-05-20T07:55:43;100438.09;;;18.62;64.33
71465;BME280;59274;49.874;9.154;2023-05-20T07:58:09;100450.88;;;18.72;64.07
71465;BME280;59274;49.874;9.154;2023-05-20T08:00:34;100446.44;;;18.78;64.10
71465;BME280;59274;49.874;9.154;2023-05-20T08:03:00;100448.22;;;18.68;63.16
71465;BME280;59274;49.874;9.154;2023-05-20T08:05:25;100443.00;;;18.74;63.27
71465;BME280;59274;49.874;9.154;2023-05-20T08:07:51;100446.09;;;18.53;63.38
71465;BME280;59274;49.874;9.154;2023-05-20T08:10:16;100441.97;;;18.41;64.87
71465;BME280;59274;49.874;9.154;2023-05-20T08:12:42;100439.88;;;18.49;63.77
71465;BME280;59274;49.874;9.154;2023-05-20T08:15:07;100446.06;;;18.76;63.74
71465;BME280;59274;49.874;9.154;2023-05-20T08:17:33;100442.06;;;19.00;64.10
71465;BME280;59274;49.874;9.154;2023-05-20T08:19:59;100446.72;;;19.03;63.12
71465;BME280;59274;49.874;9.154;2023-05-20T08:22:25;100436.56;;;19.00;62.31
71465;BME280;59274;49.874;9.154;2023-05-20T08:24:51;100434.09;;;18.86;62.57
71465;BME280;59274;49.874;9.154;2023-05-20T08:27:16;100442.94;;;18.54;63.98
71465;BME280;59274;49.874;9.154;2023-05-20T08:29:43;100446.38;;;18.38;63.91
71465;BME280;59274;49.874;9.154;2023-05-20T08:32:09;100437.34;;;18.15;64.51
71465;BME280;59274;49.874;9.154;2023-05-20T08:34:35;100442.66;;;18.02;64.73
71465;BME280;59274;49.874;9.154;2023-05-20T08:37:01;100437.41;;;17.88;66.19
71465;BME280;59274;49.874;9.154;2023-05-20T08:39:27;100436.34;;;17.78;66.44
71465;BME280;59274;49.874;9.154;2023-05-20T08:41:52;100442.03;;;17.91;66.00
71465;BME280;59274;49.874;9.154;2023-05-20T08:44:18;100432.16;;;17.97;65.47
71465;BME280;59274;49.874;9.154;2023-05-20T08:46:46;100435.75;;;17.90;65.67
71465;BME280;59274;49.874;9.154;2023-05-20T08:49:12;100433.69;;;17.98;66.50
71465;BME280;59274;49.874;9.154;2023-05-20T08:51:38;100441.25;;;17.90;66.11
71465;BME280;59274;49.874;9.154;2023-05-20T08:54:04;100435.66;;;17.97;66.00
71465;BME280;59274;49.874;9.154;2023-05-20T08:56:30;100431.59;;;18.06;65.83
71465;BME280;59274;49.874;9.154;2023-05-20T08:58:57;100434.09;;;18.20;66.71
71465;BME280;59274;49.874;9.154;2023-05-20T09:01:25;100431.75;;;18.42;65.58
71465;BME280;59274;49.874;9.154;2023-05-20T09:03:50;100429.78;;;18.65;64.01
71465;BME280;59274;49.874;9.154;2023-05-20T09:06:17;100425.78;;;18.90;66.55
71465;BME280;59274;49.874;9.154;2023-05-20T09:08:48;100417.19;;;19.24;63.97
71465;BME280;59274;49.874;9.154;2023-05-20T09:11:14;100418.56;;;19.51;62.57
71465;BME280;59274;49.874;9.154;2023-05-20T09:13:40;100419.88;;;19.79;61.42
71465;BME280;59274;49.874;9.154;2023-05-20T09:16:05;100413.31;;;19.89;60.71
71465;BME280;59274;49.874;9.154;2023-05-20T09:18:31;100412.94;;;19.39;59.53
71465;BME280;59274;49.874;9.154;2023-05-20T09:20:57;100406.56;;;18.66;61.45
71465;BME280;59274;49.874;9.154;2023-05-20T09:23:22;100400.50;;;18.75;62.83
71465;BME280;59274;49.874;9.154;2023-05-20T09:25:50;100395.25;;;19.00;62.50
71465;BME280;59274;49.874;9.154;2023-05-20T09:28:18;100401.59;;;19.17;62.58
71465;BME280;59274;49.874;9.154;2023-05-20T09:30:44;100403.69;;;19.29;62.32
71465;BME280;59274;49.874;9.154;2023-05-20T09:33:10;100409.66;;;19.44;61.49
71465;BME280;59274;49.874;9.154;2023-05-20T09:35:36;100390.59;;;19.53;61.92
71465;BME280;59274;49.874;9.154;2023-05-20T09:38:04;100394.53;;;19.68;63.13
71465;BME280;59274;49.874;9.154;2023-05-20T09:40:29;100397.81;;;19.79;62.54
71465;BME280;59274;49.874;9.154;2023-05-20T09:43:02;100400.06;;;19.84;59.87
71465;BME280;59274;49.874;9.154;2023-05-20T09:45:28;100406.16;;;19.92;59.55
71465;BME280;59274;49.874;9.154;2023-05-20T09:47:55;100393.44;;;19.66;58.85
71465;BME280;59274;49.874;9.154;2023-05-20T09:50:22;100383.25;;;19.63;60.49
71465;BME280;59274;49.874;9.154;2023-05-20T09:52:50;100382.75;;;19.68;62.09
71465;BME280;59274;49.874;9.154;2023-05-20T09:55:17;100384.16;;;19.40;58.02
71465;BME280;59274;49.874;9.154;2023-05-20T09:57:43;100384.16;;;19.24;60.54
71465;BME280;59274;49.874;9.154;2023-05-20T10:00:09;100380.50;;;19.46;62.45
71465;BME280;59274;49.874;9.154;2023-05-20T10:02:39;100384.59;;;19.38;60.73
71465;BME280;59274;49.874;9.154;2023-05-20T10:05:22;100385.25;;;19.26;60.08
71465;BME280;59274;49.874;9.154;2023-05-20T10:16:05;100368.69;;;19.94;59.75
71465;BME280;59274;49.874;9.154;2023-05-20T10:21:22;100371.38;;;20.27;58.93
71465;BME280;59274;49.874;9.154;2023-05-20T10:23:49;100365.44;;;20.45;57.39
71465;BME280;59274;49.874;9.154;2023-05-20T10:26:15;100369.97;;;20.51;58.47
71465;BME280;59274;49.874;9.154;2023-05-20T10:28:41;100374.59;;;20.54;56.56
71465;BME280;59274;49.874;9.154;2023-05-20T10:31:19;100373.41;;;20.55;57.22
71465;BME280;59274;49.874;9.154;2023-05-20T10:33:45;100367.22;;;20.51;55.49
71465;BME280;59274;49.874;9.154;2023-05-20T10:36:31;100368.06;;;20.48;58.09
71465;BME280;59274;49.874;9.154;2023-05-20T10:38:58;100367.06;;;20.71;56.83
71465;BME280;59274;49.874;9.154;2023-05-20T10:41:27;100361.03;;;20.89;55.81
71465;BME280;59274;49.874;9.154;2023-05-20T10:44:03;100367.34;;;21.02;56.96
71465;BME280;59274;49.874;9.154;2023-05-20T10:46:30;100355.50;;;21.14;56.50
71465;BME280;59274;49.874;9.154;2023-05-20T10:48:56;100346.72;;;20.65;54.20
71465;BME280;59274;49.874;9.154;2023-05-20T10:51:22;100345.00;;;19.97;55.78
71465;BME280;59274;49.874;9.154;2023-05-20T10:53:51;100334.06;;;20.39;57.54
71465;BME280;59274;49.874;9.154;2023-05-20T10:56:19;100339.91;;;20.82;56.29
71465;BME280;59274;49.874;9.154;2023-05-20T10:58:46;100341.50;;;21.21;55.96
71465;BME280;59274;49.874;9.154;2023-05-20T11:01:12;100324.78;;;21.63;56.65
71465;BME280;59274;49.874;9.154;2023-05-20T11:03:39;100323.69;;;22.07;54.33
71465;BME280;59274;49.874;9.154;2023-05-20T11:06:15;100337.78;;;22.22;54.22
71465;BME280;59274;49.874;9.154;2023-05-20T11:08:41;100330.19;;;22.13;54.35
71465;BME280;59274;49.874;9.154;2023-05-20T11:11:07;100325.69;;;22.29;52.53
71465;BME280;59274;49.874;9.154;2023-05-20T11:13:33;100323.81;;;21.91;51.15
71465;BME280;59274;49.874;9.154;2023-05-20T11:15:59;100326.78;;;22.09;51.45
71465;BME280;59274;49.874;9.154;2023-05-20T11:18:28;100323.50;;;22.45;50.94
71465;BME280;59274;49.874;9.154;2023-05-20T11:20:58;100321.19;;;22.87;51.77
71465;BME280;59274;49.874;9.154;2023-05-20T11:23:28;100319.31;;;23.24;49.38
71465;BME280;59274;49.874;9.154;2023-05-20T11:25:55;100321.38;;;22.71;48.01
71465;BME280;59274;49.874;9.154;2023-05-20T11:28:22;100315.78;;;22.18;49.14
71465;BME280;59274;49.874;9.154;2023-05-20T11:30:49;100325.91;;;21.53;50.97
71465;BME280;59274;49.874;9.154;2023-05-20T11:33:16;100328.91;;;21.33;52.55
71465;BME280;59274;49.874;9.154;2023-05-20T11:35:52;100315.84;;;21.46;51.49
71465;BME280;59274;49.874;9.154;2023-05-20T11:38:19;100315.38;;;21.60;50.79
71465;BME280;59274;49.874;9.154;2023-05-20T11:40:46;100322.38;;;21.52;49.79
71465;BME280;59274;49.874;9.154;2023-05-20T11:43:13;100306.03;;;21.45;50.10
71465;BME280;59274;49.874;9.154;2023-05-20T11:45:51;100294.88;;;21.36;50.94
71465;BME280;59274;49.874;9.154;2023-05-20T11:48:17;100298.06;;;21.34;51.10
71465;BME280;59274;49.874;9.154;2023-05-20T11:50:45;100297.03;;;21.66;51.11
71465;BME280;59274;49.874;9.154;2023-05-20T11:53:17;100288.63;;;21.57;51.62
71465;BME280;59274;49.874;9.154;2023-05-20T11:55:53;100292.44;;;21.25;50.96
71465;BME280;59274;49.874;9.154;2023-05-20T11:58:29;100296.88;;;21.70;49.10
71465;BME280;59274;49.874;9.154;2023-05-20T12:00:56;100299.00;;;21.66;51.24
71465;BME280;59274;49.874;9.154;2023-05-20T12:03:21;100301.22;;;21.71;51.38
71465;BME280;59274;49.874;9.154;2023-05-20T12:05:47;100296.38;;;21.97;51.81
71465;BME280;59274;49.874;9.154;2023-05-20T12:08:13;100294.81;;;22.30;50.17
71465;BME280;59274;49.874;9.154;2023-05-20T12:10:39;100289.81;;;22.03;49.41
71465;BME280;59274;49.874;9.154;2023-05-20T12:13:05;100282.25;;;21.82;49.99
71465;BME280;59274;49.874;9.154;2023-05-20T12:15:36;100283.53;;;21.90;49.37
71465;BME280;59274;49.874;9.154;2023-05-20T12:18:02;100274.72;;;22.39;49.47
71465;BME280;59274;49.874;9.154;2023-05-20T12:20:28;100281.22;;;22.45;48.33
71465;BME280;59274;49.874;9.154;2023-05-20T12:22:55;100278.56;;;21.98;49.28
71465;BME280;59274;49.874;9.154;2023-05-20T12:25:20;100269.38;;;22.22;52.95
71465;BME280;59274;49.874;9.154;2023-05-20T12:27:47;100273.72;;;22.23;49.36
71465;BME280;59274;49.874;9.154;2023-05-20T12:30:19;100267.69;;;23.09;47.85
71465;BME280;59274;49.874;9.154;2023-05-20T12:32:46;100268.31;;;23.13;49.07
71465;BME280;59274;49.874;9.154;2023-05-20T12:35:12;100273.50;;;22.71;47.85
71465;BME280;59274;49.874;9.154;2023-05-20T12:37:38;100276.91;;;22.44;48.54
71465;BME280;59274;49.874;9.154;2023-05-20T12:40:06;100264.56;;;22.36;48.93
71465;BME280;59274;49.874;9.154;2023-05-20T12:42:39;100272.63;;;23.14;47.40
71465;BME280;59274;49.874;9.154;2023-05-20T12:45:06;100264.38;;;23.41;46.21
71465;BME280;59274;49.874;9.154;2023-05-20T12:47:32;100251.34;;;22.71;47.49
71465;BME280;59274;49.874;9.154;2023-05-20T12:49:58;100254.31;;;22.76;47.70
71465;BME280;59274;49.874;9.154;2023-05-20T12:52:25;100248.47;;;23.14;49.45
71465;BME280;59274;49.874;9.154;2023-05-20T12:54:52;100245.38;;;23.12;48.02
71465;BME280;59274;49.874;9.154;2023-05-20T12:57:18;100242.41;;;22.97;48.87
71465;BME280;59274;49.874;9.154;2023-05-20T12:59:45;100243.63;;;22.35;48.88